Justin Paul Eckstein — WDB9186 — position and weather

sailwx.info

Track history (hours):
 
Tides and Currents Weather Stations Pressure Air Temp Water Temp Dewpoint Dewpoint Depression Visibility Wind Speed Wind Dir Waves Ship Positions

Justin Paul Eckstein

More information available from US FCC via Universal Licensing System and Coast Guard Vessel Documentation Center.

Last reported at 2014-Sep-12 01:29 UTC. Time now 2014-Sep-19 15:48 UTC.
Position N 30°25' W 091°12'.

Length 61 m; draft 2.9 m.

Type: Tow > 200 m length. MMSI: 366971510.

Date/timePositionNaut miles runAvg speedWind from/ knotsBaromVisibWave heightAir tempDewpointWater temp
2014-Sep-12 01:29N 30°25' W 091°12'24 1.7
2014-Sep-11 11:26N 30°06' W 090°55'5 5.8
2014-Sep-11 10:33N 30°02' W 090°50'4 3.6
2014-Sep-11 09:33N 30°00' W 090°47'6 6.1
2014-Sep-11 08:33N 30°03' W 090°41'1 1.2
2014-Sep-11 07:33N 30°03' W 090°39'0 0.0
2014-Sep-11 06:33N 30°03' W 090°39'0 0.0
2014-Sep-11 05:33N 30°03' W 090°39'0 0.0
2014-Sep-11 04:33N 30°03' W 090°39'0 0.0
2014-Sep-11 03:33N 30°03' W 090°39'0 0.0
2014-Sep-11 02:33N 30°03' W 090°39'0 0.1
2014-Sep-11 01:33N 30°03' W 090°39'0 0.0
2014-Sep-11 00:33N 30°03' W 090°39'0 0.1
2014-Sep-10 23:33N 30°03' W 090°39'2 1.9
2014-Sep-10 22:33N 30°02' W 090°37'6 6.2
2014-Sep-10 21:33N 30°03' W 090°30'0 0.0
2014-Sep-10 20:33N 30°03' W 090°30'0 0.0
2014-Sep-10 19:32N 30°03' W 090°30'2 0.5
2014-Sep-10 15:19N 30°02' W 090°28'0 0.2
2014-Sep-10 14:15N 30°01' W 090°28'0 0.2
2014-Sep-10 13:13N 30°01' W 090°28'0 0.1
2014-Sep-10 12:33N 30°01' W 090°28'0 0.0
2014-Sep-10 11:34N 30°01' W 090°28'0 0.0
2014-Sep-10 10:33N 30°01' W 090°28'0 0.0
2014-Sep-10 09:33N 30°01' W 090°28'2 2.2
2014-Sep-10 08:34N 29°60' W 090°26'6 5.8
2014-Sep-10 07:33N 29°56' W 090°21'2 2.2
2014-Sep-10 06:33N 29°57' W 090°19'8 0.8
2014-Sep-09 19:32N 29°60' W 090°28'2 2.2
2014-Sep-09 18:33N 30°02' W 090°28'0 0.0
2014-Sep-09 17:33N 30°02' W 090°28'0 0.0
2014-Sep-09 16:33N 30°02' W 090°28'0 0.0
2014-Sep-09 15:32N 30°02' W 090°28'0 0.0
2014-Sep-09 14:28N 30°02' W 090°28'0 0.0
2014-Sep-09 13:34N 30°02' W 090°28'0 0.0
2014-Sep-09 12:33N 30°02' W 090°28'0 0.0
2014-Sep-09 11:33N 30°02' W 090°28'0 0.0
2014-Sep-09 10:33N 30°02' W 090°28'0 0.0
2014-Sep-09 09:33N 30°02' W 090°28'0 0.0
2014-Sep-09 08:33N 30°02' W 090°28'0 0.0
2014-Sep-09 07:33N 30°02' W 090°28'0 0.0
2014-Sep-09 06:33N 30°02' W 090°28'0 0.0
2014-Sep-09 05:30N 30°02' W 090°28'1 0.6
2014-Sep-09 04:34N 30°02' W 090°28'5 4.9
2014-Sep-09 03:33N 30°03' W 090°34'0 0.0
2014-Sep-09 02:33N 30°03' W 090°34'0 0.0
2014-Sep-09 01:33N 30°03' W 090°34'0 0.0
2014-Sep-09 00:33N 30°03' W 090°34'3 3.4
2014-Sep-08 23:34N 30°03' W 090°38'  
Track history (hours):
 
Tides and Currents Weather Stations Pressure Air Temp Water Temp Dewpoint Dewpoint Depression Visibility Wind Speed Wind Dir Waves Ship Positions

Justin Paul Eckstein

More information available from US FCC via Universal Licensing System and Coast Guard Vessel Documentation Center.

Last reported at 2014-Sep-12 01:29 UTC. Time now 2014-Sep-19 15:48 UTC.
Position N 30°25' W 091°12'.

Length 61 m; draft 2.9 m.

Type: Tow > 200 m length. MMSI: 366971510.

Date/timePositionNaut miles runAvg speedWind from/ knotsBaromVisibWave heightAir tempDewpointWater temp
2014-Sep-12 01:29N 30°25' W 091°12'24 1.7
2014-Sep-11 11:26N 30°06' W 090°55'5 5.8
2014-Sep-11 10:33N 30°02' W 090°50'4 3.6
2014-Sep-11 09:33N 30°00' W 090°47'6 6.1
2014-Sep-11 08:33N 30°03' W 090°41'1 1.2
2014-Sep-11 07:33N 30°03' W 090°39'0 0.0
2014-Sep-11 06:33N 30°03' W 090°39'0 0.0
2014-Sep-11 05:33N 30°03' W 090°39'0 0.0
2014-Sep-11 04:33N 30°03' W 090°39'0 0.0
2014-Sep-11 03:33N 30°03' W 090°39'0 0.0
2014-Sep-11 02:33N 30°03' W 090°39'0 0.1
2014-Sep-11 01:33N 30°03' W 090°39'0 0.0
2014-Sep-11 00:33N 30°03' W 090°39'0 0.1
2014-Sep-10 23:33N 30°03' W 090°39'2 1.9
2014-Sep-10 22:33N 30°02' W 090°37'6 6.2
2014-Sep-10 21:33N 30°03' W 090°30'0 0.0
2014-Sep-10 20:33N 30°03' W 090°30'0 0.0
2014-Sep-10 19:32N 30°03' W 090°30'2 0.5
2014-Sep-10 15:19N 30°02' W 090°28'0 0.2
2014-Sep-10 14:15N 30°01' W 090°28'0 0.2
2014-Sep-10 13:13N 30°01' W 090°28'0 0.1
2014-Sep-10 12:33N 30°01' W 090°28'0 0.0
2014-Sep-10 11:34N 30°01' W 090°28'0 0.0
2014-Sep-10 10:33N 30°01' W 090°28'0 0.0
2014-Sep-10 09:33N 30°01' W 090°28'2 2.2
2014-Sep-10 08:34N 29°60' W 090°26'6 5.8
2014-Sep-10 07:33N 29°56' W 090°21'2 2.2
2014-Sep-10 06:33N 29°57' W 090°19'8 0.8
2014-Sep-09 19:32N 29°60' W 090°28'2 2.2
2014-Sep-09 18:33N 30°02' W 090°28'0 0.0
2014-Sep-09 17:33N 30°02' W 090°28'0 0.0
2014-Sep-09 16:33N 30°02' W 090°28'0 0.0
2014-Sep-09 15:32N 30°02' W 090°28'0 0.0
2014-Sep-09 14:28N 30°02' W 090°28'0 0.0
2014-Sep-09 13:34N 30°02' W 090°28'0 0.0
2014-Sep-09 12:33N 30°02' W 090°28'0 0.0
2014-Sep-09 11:33N 30°02' W 090°28'0 0.0
2014-Sep-09 10:33N 30°02' W 090°28'0 0.0
2014-Sep-09 09:33N 30°02' W 090°28'0 0.0
2014-Sep-09 08:33N 30°02' W 090°28'0 0.0
2014-Sep-09 07:33N 30°02' W 090°28'0 0.0
2014-Sep-09 06:33N 30°02' W 090°28'0 0.0
2014-Sep-09 05:30N 30°02' W 090°28'1 0.6
2014-Sep-09 04:34N 30°02' W 090°28'5 4.9
2014-Sep-09 03:33N 30°03' W 090°34'0 0.0
2014-Sep-09 02:33N 30°03' W 090°34'0 0.0
2014-Sep-09 01:33N 30°03' W 090°34'0 0.0
2014-Sep-09 00:33N 30°03' W 090°34'3 3.4
2014-Sep-08 23:34N 30°03' W 090°38'  

Dump ship's entire track history